Time;durP1;ratioP1;P1;durP2;ratioP2;P2;SDS_P1;SDS_P2;PMS_P1;PMS_P2;Temp;Humidity;BMP_temperature;BMP_pressure;BME280_temperature;BME280_humidity;BME280_pressure;Samples;Min_cycle;Max_cycle;Signal;HPM_P1;HPM_P2
2021/11/22 00:02:24;;;;;;;24.25;11.00;;;;;;;1.57;100.00;95380.25;4974826;28;20385;-56
2021/11/22 00:04:51;;;;;;;27.15;12.23;;;;;;;1.64;100.00;95379.88;4972951;28;20460;-55
2021/11/22 00:07:18;;;;;;;24.58;12.63;;;;;;;1.63;100.00;95373.75;4998345;28;20500;-56
2021/11/22 00:09:45;;;;;;;22.77;10.77;;;;;;;2.40;100.00;95361.06;4989538;28;20070;-55
2021/11/22 00:12:12;;;;;;;28.58;12.02;;;;;;;3.03;95.12;95369.25;4980916;28;20073;-54
2021/11/22 00:14:39;;;;;;;24.45;10.90;;;;;;;3.22;93.71;95363.78;4993236;28;20049;-52
2021/11/22 00:17:06;;;;;;;26.05;12.25;;;;;;;2.83;95.19;95360.81;4996258;28;20042;-55
2021/11/22 00:19:34;;;;;;;24.05;9.60;;;;;;;2.87;94.31;95362.63;4993352;28;20159;-52
2021/11/22 00:22:02;;;;;;;22.98;11.00;;;;;;;3.26;92.78;95359.41;4976697;28;20109;-52
2021/11/22 00:24:30;;;;;;;26.27;11.10;;;;;;;3.50;91.33;95375.22;4979477;28;20043;-52
2021/11/22 00:26:57;;;;;;;22.98;11.60;;;;;;;3.43;91.72;95374.84;4992690;28;20042;-56
2021/11/22 00:29:24;;;;;;;22.67;10.43;;;;;;;3.51;91.41;95371.47;4996344;28;20113;-56
2021/11/22 00:32:14;;;;;;;21.77;10.60;;;;;;;3.66;89.71;95383.69;4975177;28;20050;-55
2021/11/22 00:35:00;;;;;;;22.73;11.18;;;;;;;3.48;90.60;95376.63;4980057;28;20412;-56
2021/11/22 00:37:37;;;;;;;22.17;10.43;;;;;;;3.55;89.87;95386.91;4982776;28;20047;-57
2021/11/22 00:40:08;;;;;;;24.20;11.73;;;;;;;3.48;91.04;95388.13;4995075;28;20076;-55
2021/11/22 00:42:36;;;;;;;26.58;11.23;;;;;;;3.08;93.58;95380.91;4994012;28;20038;-56
2021/11/22 00:45:04;;;;;;;24.83;11.43;;;;;;;3.43;91.02;95380.19;4995228;28;20034;-55
2021/11/22 00:47:33;;;;;;;27.23;12.63;;;;;;;3.47;91.15;95375.03;4992680;28;20050;-55
2021/11/22 00:50:00;;;;;;;24.77;11.55;;;;;;;3.23;91.37;95385.97;4989213;28;20042;-54
2021/11/22 00:52:26;;;;;;;20.23;9.43;;;;;;;2.49;94.61;95391.34;4982602;28;20057;-53
2021/11/22 00:54:53;;;;;;;23.20;10.95;;;;;;;2.64;94.96;95398.31;4990077;28;20492;-54
2021/11/22 00:57:20;;;;;;;25.67;10.85;;;;;;;2.50;94.89;95401.75;4994915;28;20042;-55
2021/11/22 00:59:47;;;;;;;26.17;11.05;;;;;;;2.07;98.52;95398.44;4993792;28;20050;-55
2021/11/22 01:02:14;;;;;;;23.80;10.80;;;;;;;1.95;99.76;95398.91;4994621;28;20043;-55
2021/11/22 01:04:41;;;;;;;23.13;11.45;;;;;;;2.75;96.75;95402.38;4992452;28;20035;-54
2021/11/22 01:07:08;;;;;;;24.48;10.40;;;;;;;2.47;97.58;95401.53;4994499;28;20117;-56
2021/11/22 01:09:35;;;;;;;22.27;10.13;;;;;;;2.25;98.94;95407.50;4994081;28;20042;-52
2021/11/22 01:12:02;;;;;;;24.10;11.13;;;;;;;2.11;100.00;95404.78;4985815;28;20052;-53
2021/11/22 01:14:29;;;;;;;22.00;9.23;;;;;;;2.20;99.83;95407.59;4992459;28;20408;-52
2021/11/22 01:16:56;;;;;;;22.27;10.07;;;;;;;2.24;100.00;95408.56;4994380;28;20064;-51
2021/11/22 01:19:23;;;;;;;19.30;9.07;;;;;;;3.03;95.67;95405.88;4993607;28;20114;-53
2021/11/22 01:21:50;;;;;;;22.27;10.38;;;;;;;2.95;95.35;95406.53;4979680;28;20043;-51
2021/11/22 01:24:17;;;;;;;20.63;10.20;;;;;;;2.40;97.86;95415.25;4985984;28;20042;-52
2021/11/22 01:26:44;;;;;;;22.42;10.27;;;;;;;2.26;98.48;95411.75;4993503;28;20044;-54
2021/11/22 01:29:11;;;;;;;19.88;9.60;;;;;;;2.99;96.48;95421.72;4993480;28;20444;-56
2021/11/22 01:31:38;;;;;;;21.10;9.85;;;;;;;3.36;92.88;95419.91;4993437;28;20042;-56
2021/11/22 01:34:05;;;;;;;20.20;10.15;;;;;;;3.07;93.48;95420.22;4979277;28;20045;-56
2021/11/22 01:36:33;;;;;;;22.15;10.45;;;;;;;2.92;95.09;95429.31;4991478;28;20050;-56
2021/11/22 01:39:00;;;;;;;27.17;9.77;;;;;;;3.19;92.88;95420.53;4978881;28;20125;-56
2021/11/22 01:41:27;;;;;;;23.45;11.65;;;;;;;3.16;93.74;95415.75;4982484;28;20484;-52
2021/11/22 01:43:54;;;;;;;21.25;10.57;;;;;;;3.22;92.77;95417.25;4992302;28;20049;-56
2021/11/22 01:46:22;;;;;;;21.45;10.55;;;;;;;3.01;93.73;95424.84;4993102;28;20044;-55
2021/11/22 01:48:49;;;;;;;24.02;12.68;;;;;;;2.67;96.07;95422.56;4989976;28;20432;-55
2021/11/22 01:51:16;;;;;;;23.58;10.57;;;;;;;3.32;93.38;95415.47;4992214;28;20042;-55
2021/11/22 01:53:43;;;;;;;23.35;11.57;;;;;;;3.32;92.52;95416.25;4987765;28;20552;-53
2021/11/22 01:56:20;;;;;;;26.95;12.05;;;;;;;2.89;95.19;95416.53;4991689;28;20493;-52
2021/11/22 01:58:48;;;;;;;24.27;11.63;;;;;;;2.76;95.76;95419.97;4990978;28;20133;-54
2021/11/22 02:01:16;;;;;;;21.70;11.70;;;;;;;3.04;93.79;95416.25;4984341;28;20047;-53
2021/11/22 02:03:44;;;;;;;23.75;13.07;;;;;;;3.38;91.91;95414.25;4979214;28;20050;-54
2021/11/22 02:06:11;;;;;;;20.83;12.25;;;;;;;2.89;93.29;95424.53;4992710;28;20596;-54
2021/11/22 02:08:39;;;;;;;20.38;11.63;;;;;;;3.41;91.12;95427.84;4992965;28;20496;-53
2021/11/22 02:11:10;;;;;;;19.75;11.13;;;;;;;3.19;92.52;95428.53;4982171;28;20412;-54
2021/11/22 02:13:37;;;;;;;21.98;12.05;;;;;;;3.64;89.89;95427.88;4975930;28;20069;-52
2021/11/22 02:16:04;;;;;;;23.08;12.18;;;;;;;3.70;89.27;95432.03;4993899;28;20038;-54
2021/11/22 02:18:31;;;;;;;22.95;12.82;;;;;;;3.30;91.12;95429.13;4992810;28;20053;-56
2021/11/22 02:20:58;;;;;;;22.95;11.57;;;;;;;3.49;91.05;95450.41;4983753;28;20057;-55
2021/11/22 02:23:25;;;;;;;22.10;11.90;;;;;;;3.20;92.04;95443.47;4987111;28;20441;-52
2021/11/22 02:25:52;;;;;;;23.23;12.82;;;;;;;3.42;90.32;95448.13;4992728;28;20365;-53
2021/11/22 02:28:19;;;;;;;22.45;11.93;;;;;;;3.39;91.04;95446.06;4987271;28;20046;-52
2021/11/22 02:30:49;;;;;;;20.92;11.10;;;;;;;3.60;89.64;95449.09;4991032;28;20087;-53
2021/11/22 02:33:19;;;;;;;21.30;11.10;;;;;;;3.54;90.13;95446.84;4982070;28;20122;-54
2021/11/22 02:35:52;;;;;;;18.80;9.60;;;;;;;3.64;89.73;95443.94;4985343;28;20130;-53
2021/11/22 02:38:33;;;;;;;19.27;10.60;;;;;;;3.16;91.18;95445.16;4991114;28;20054;-52
2021/11/22 02:41:02;;;;;;;21.30;10.85;;;;;;;2.50;95.33;95454.34;4980294;28;20042;-54
2021/11/22 02:43:33;;;;;;;21.38;11.43;;;;;;;3.37;91.67;95453.56;4989898;28;20510;-51
2021/11/22 02:46:01;;;;;;;18.75;10.50;;;;;;;3.28;91.85;95452.69;4992255;28;20126;-52
2021/11/22 02:48:28;;;;;;;20.30;11.20;;;;;;;3.24;92.30;95452.50;4991547;28;20066;-52
2021/11/22 02:50:55;;;;;;;21.17;11.10;;;;;;;3.56;91.15;95458.03;4991323;28;20415;-53
2021/11/22 02:53:27;;;;;;;23.27;11.85;;;;;;;3.29;93.28;95459.63;4974782;28;20053;-52
2021/11/22 02:55:58;;;;;;;24.45;12.13;;;;;;;3.77;90.12;95451.19;4992663;28;20042;-52
2021/11/22 02:58:26;;;;;;;23.05;12.10;;;;;;;3.49;91.20;95458.44;4987824;28;20052;-55
2021/11/22 03:00:53;;;;;;;22.08;12.30;;;;;;;3.68;91.18;95456.44;4991738;28;20052;-52
2021/11/22 03:03:32;;;;;;;22.33;12.20;;;;;;;3.63;91.10;95459.19;4985032;28;20038;-50
2021/11/22 03:06:05;;;;;;;24.58;12.73;;;;;;;3.56;92.17;95458.03;4993184;28;20042;-50
2021/11/22 03:08:31;;;;;;;24.38;11.82;;;;;;;3.45;92.20;95452.91;4991592;28;20058;-52
2021/11/22 03:10:58;;;;;;;26.80;12.82;;;;;;;2.69;95.22;95452.41;4977449;28;20049;-50
2021/11/22 03:13:25;;;;;;;22.08;12.30;;;;;;;2.73;97.60;95457.97;4990244;28;20042;-50
2021/11/22 03:15:52;;;;;;;21.90;12.18;;;;;;;2.02;99.95;95455.34;4989601;28;20420;-50
2021/11/22 03:18:19;;;;;;;23.83;12.25;;;;;;;1.85;100.00;95455.88;4976483;28;20047;-50
2021/11/22 03:20:46;;;;;;;22.52;11.75;;;;;;;2.11;100.00;95463.47;4985160;28;20583;-50
2021/11/22 03:23:19;;;;;;;26.90;12.65;;;;;;;2.45;100.00;95457.91;4988546;28;20047;-50
2021/11/22 03:25:46;;;;;;;28.35;13.23;;;;;;;2.16;100.00;95465.31;4986651;28;20056;-56
2021/11/22 03:28:16;;;;;;;24.52;12.35;;;;;;;2.83;98.00;95476.50;4989823;28;20137;-51
2021/11/22 03:30:44;;;;;;;24.80;13.07;;;;;;;2.90;97.39;95470.78;4992604;28;20050;-50
2021/11/22 03:33:17;;;;;;;22.95;12.45;;;;;;;2.31;98.67;95465.88;4977478;28;20071;-50
2021/11/22 03:35:46;;;;;;;20.67;11.32;;;;;;;3.06;96.38;95476.66;4984273;28;20042;-50
2021/11/22 03:38:15;;;;;;;25.42;12.18;;;;;;;3.49;93.04;95475.28;4977059;28;20073;-50
2021/11/22 03:40:44;;;;;;;26.67;12.50;;;;;;;3.61;92.15;95477.47;4990012;28;20052;-50
2021/11/22 03:43:15;;;;;;;24.98;13.07;;;;;;;3.54;92.43;95476.25;4990640;28;20133;-52
2021/11/22 03:45:47;;;;;;;27.30;13.95;;;;;;;2.56;95.78;95477.22;4992413;28;20038;-49
2021/11/22 03:48:14;;;;;;;31.45;14.35;;;;;;;1.94;99.95;95473.88;4985068;28;20042;-49
2021/11/22 03:50:42;;;;;;;26.25;13.85;;;;;;;1.97;100.00;95476.75;4990671;28;20050;-52
2021/11/22 03:53:09;;;;;;;29.15;15.48;;;;;;;2.25;99.90;95487.59;4991550;28;20485;-53
2021/11/22 03:55:36;;;;;;;28.02;14.98;;;;;;;2.52;99.90;95490.34;4989385;28;20046;-49
2021/11/22 03:58:03;;;;;;;28.80;14.25;;;;;;;2.20;99.84;95482.31;4992284;28;20050;-52
2021/11/22 04:00:30;;;;;;;29.77;15.10;;;;;;;2.04;100.00;95481.75;4988743;28;20477;-51
2021/11/22 04:02:58;;;;;;;29.05;15.35;;;;;;;2.41;100.00;95488.94;4974168;28;20481;-50
2021/11/22 04:05:24;;;;;;;26.65;14.35;;;;;;;2.96;96.73;95499.00;4989469;28;20130;-49
2021/11/22 04:07:51;;;;;;;28.63;15.27;;;;;;;2.05;100.00;95502.81;4991491;28;20050;-49
2021/11/22 04:10:18;;;;;;;28.35;14.52;;;;;;;1.82;100.00;95498.31;4991182;28;20054;-50
2021/11/22 04:12:45;;;;;;;27.92;14.85;;;;;;;1.72;100.00;95501.09;4989253;28;20198;-49
2021/11/22 04:15:12;;;;;;;29.45;14.50;;;;;;;1.80;100.00;95501.28;4987780;28;20052;-52
2021/11/22 04:17:41;;;;;;;29.23;14.25;;;;;;;1.68;100.00;95502.75;4991581;28;20108;-50
2021/11/22 04:20:08;;;;;;;29.77;15.60;;;;;;;1.82;100.00;95509.78;4990512;28;20141;-55
2021/11/22 04:22:36;;;;;;;32.15;15.02;;;;;;;1.81;100.00;95512.72;4982886;28;20084;-55
2021/11/22 04:25:05;;;;;;;29.15;14.85;;;;;;;1.72;100.00;95511.78;4980969;28;20133;-53
2021/11/22 04:27:34;;;;;;;26.92;14.02;;;;;;;1.73;100.00;95513.38;4991203;28;20050;-53
2021/11/22 04:30:04;;;;;;;31.30;15.75;;;;;;;1.79;100.00;95521.03;4992743;28;20039;-52
2021/11/22 04:32:31;;;;;;;29.05;14.27;;;;;;;2.51;100.00;95533.38;4981593;28;20051;-56
2021/11/22 04:34:58;;;;;;;26.73;14.43;;;;;;;2.24;100.00;95526.03;4981689;28;20039;-53
2021/11/22 04:37:28;;;;;;;32.90;14.68;;;;;;;2.08;100.00;95528.94;4987177;28;20415;-53
2021/11/22 04:39:55;;;;;;;28.48;13.75;;;;;;;2.08;100.00;95533.44;4984650;28;20054;-49
2021/11/22 04:42:22;;;;;;;30.00;15.48;;;;;;;2.56;99.93;95542.09;4990336;28;20070;-50
2021/11/22 04:44:50;;;;;;;30.35;13.85;;;;;;;2.26;100.00;95543.34;4985070;28;20404;-51
2021/11/22 04:47:20;;;;;;;29.17;14.02;;;;;;;2.28;100.00;95546.53;4988554;28;20049;-52
2021/11/22 04:49:49;;;;;;;29.42;15.27;;;;;;;2.57;99.79;95538.38;4991335;28;20050;-52
2021/11/22 04:52:16;;;;;;;28.35;13.95;;;;;;;2.50;100.00;95545.13;4991393;28;20044;-53
2021/11/22 04:54:44;;;;;;;26.40;13.40;;;;;;;2.58;100.00;95553.28;4986122;28;20042;-53
2021/11/22 04:57:12;;;;;;;31.10;14.88;;;;;;;2.52;100.00;95548.31;4990785;28;20047;-53
2021/11/22 04:59:39;;;;;;;26.25;15.13;;;;;;;3.12;96.93;95553.78;4987585;28;20415;-55
2021/11/22 05:02:08;;;;;;;30.08;13.45;;;;;;;3.25;96.29;95549.53;4993311;28;20129;-50
2021/11/22 05:04:36;;;;;;;26.42;13.23;;;;;;;3.33;95.14;95551.53;4988001;28;20050;-52
2021/11/22 05:07:04;;;;;;;24.83;13.35;;;;;;;3.28;95.72;95554.28;4995376;28;20488;-50
2021/11/22 05:09:32;;;;;;;27.73;14.13;;;;;;;3.67;92.92;95559.19;4994874;28;20046;-53
2021/11/22 05:11:59;;;;;;;26.80;13.73;;;;;;;3.77;92.14;95555.53;4993390;28;20050;-53
2021/11/22 05:14:26;;;;;;;26.90;13.45;;;;;;;3.86;91.35;95561.75;4981492;28;20045;-54
2021/11/22 05:16:53;;;;;;;28.38;13.75;;;;;;;3.76;91.17;95561.97;4990562;28;20037;-54
2021/11/22 05:19:20;;;;;;;28.02;12.68;;;;;;;3.40;94.27;95561.84;4993425;28;20052;-53
2021/11/22 05:21:47;;;;;;;27.65;13.07;;;;;;;3.51;93.27;95564.03;4994318;28;20407;-51
2021/11/22 05:24:14;;;;;;;24.75;12.38;;;;;;;3.82;91.83;95568.00;4990126;28;20039;-52
2021/11/22 05:26:41;;;;;;;26.98;13.07;;;;;;;3.67;92.45;95558.38;4994474;28;20475;-53
2021/11/22 05:29:08;;;;;;;23.17;11.30;;;;;;;3.56;92.81;95557.78;4994259;28;20051;-51
2021/11/22 05:31:35;;;;;;;26.17;12.57;;;;;;;3.67;92.57;95566.41;4993504;28;20046;-55
2021/11/22 05:34:03;;;;;;;23.77;11.80;;;;;;;3.67;92.55;95566.41;4989352;28;20047;-54
2021/11/22 05:36:33;;;;;;;23.80;11.30;;;;;;;2.73;97.20;95570.16;4993703;28;20042;-50
2021/11/22 05:39:00;;;;;;;26.42;12.38;;;;;;;3.27;95.82;95568.75;4992731;28;20121;-51
2021/11/22 05:41:26;;;;;;;24.50;11.82;;;;;;;2.89;96.49;95566.16;4994840;28;20050;-54
2021/11/22 05:43:53;;;;;;;26.02;12.35;;;;;;;3.49;94.79;95571.56;4982660;28;20381;-54
2021/11/22 05:46:20;;;;;;;26.02;11.95;;;;;;;3.59;93.90;95572.47;4992935;28;20126;-50
2021/11/22 05:48:47;;;;;;;25.52;11.45;;;;;;;2.74;97.92;95577.91;4987602;28;20459;-53
2021/11/22 05:51:15;;;;;;;23.25;11.95;;;;;;;3.27;96.02;95579.44;4989779;28;20042;-50
2021/11/22 05:53:43;;;;;;;21.05;10.48;;;;;;;2.62;97.55;95579.41;4989700;28;20117;-50
2021/11/22 05:56:10;;;;;;;20.70;10.45;;;;;;;2.79;97.97;95585.84;4983396;28;20049;-53
2021/11/22 05:58:37;;;;;;;21.83;11.27;;;;;;;3.38;96.53;95586.22;4991418;28;20042;-53
2021/11/22 06:01:05;;;;;;;21.85;11.32;;;;;;;3.16;96.10;95588.72;4993065;28;20042;-50
2021/11/22 06:03:33;;;;;;;20.30;10.55;;;;;;;3.65;93.88;95596.16;4981190;28;20054;-51
2021/11/22 06:06:01;;;;;;;23.23;10.40;;;;;;;2.78;96.71;95594.13;4992357;28;20040;-50
2021/11/22 06:08:28;;;;;;;23.42;10.35;;;;;;;2.66;99.51;95597.25;4993250;28;20456;-50
2021/11/22 06:10:56;;;;;;;22.48;12.02;;;;;;;2.62;100.00;95600.78;4991440;28;20045;-50
2021/11/22 06:13:23;;;;;;;24.98;12.05;;;;;;;3.19;97.58;95604.19;4990757;28;20062;-53
2021/11/22 06:15:51;;;;;;;23.90;10.88;;;;;;;3.61;94.70;95605.06;4991645;28;20041;-50
2021/11/22 06:18:18;;;;;;;24.17;11.75;;;;;;;3.23;96.25;95614.00;4989918;28;20082;-51
2021/11/22 06:20:45;;;;;;;25.00;11.68;;;;;;;3.56;94.62;95618.53;4988513;28;20049;-50
2021/11/22 06:23:12;;;;;;;27.80;14.00;;;;;;;3.49;95.10;95622.38;4984098;28;20050;-50
2021/11/22 06:25:39;;;;;;;26.92;12.30;;;;;;;3.55;93.88;95623.09;5008089;28;20068;-50
2021/11/22 06:28:06;;;;;;;25.48;11.95;;;;;;;3.32;94.82;95619.47;4992378;28;20042;-56
2021/11/22 06:30:35;;;;;;;25.42;12.32;;;;;;;3.50;94.35;95626.63;4993409;28;20050;-55
2021/11/22 06:33:02;;;;;;;26.90;12.93;;;;;;;3.52;93.82;95631.69;4989898;28;20048;-53
2021/11/22 06:35:34;;;;;;;30.73;14.27;;;;;;;3.79;93.54;95638.19;4993138;28;20050;-51
2021/11/22 06:38:01;;;;;;;26.98;12.65;;;;;;;3.68;93.69;95629.56;4992792;28;20522;-55
2021/11/22 06:40:28;;;;;;;28.17;12.52;;;;;;;3.89;92.13;95637.97;4978412;28;20042;-52
2021/11/22 06:42:55;;;;;;;28.27;13.93;;;;;;;3.95;91.90;95650.19;4976687;28;20133;-53
2021/11/22 06:45:23;;;;;;;28.10;12.82;;;;;;;3.53;93.06;95649.31;4992195;28;20034;-56
2021/11/22 06:47:50;;;;;;;29.23;13.18;;;;;;;3.49;93.41;95646.44;4990362;28;20121;-55
2021/11/22 06:50:18;;;;;;;29.92;13.93;;;;;;;3.43;94.02;95654.84;4977932;28;20047;-52
2021/11/22 06:52:46;;;;;;;30.58;14.35;;;;;;;3.32;95.66;95654.25;4983407;28;20089;-52
2021/11/22 06:55:13;;;;;;;29.83;13.15;;;;;;;3.64;93.55;95655.28;4991059;28;20050;-54
2021/11/22 06:57:41;;;;;;;28.23;13.18;;;;;;;3.63;93.07;95653.72;4992600;28;20046;-53
2021/11/22 07:00:10;;;;;;;27.70;12.95;;;;;;;3.64;93.42;95655.28;4991682;28;20491;-56
2021/11/22 07:02:38;;;;;;;28.25;13.55;;;;;;;3.91;91.73;95667.94;4991429;28;20050;-55
2021/11/22 07:05:06;;;;;;;28.02;13.18;;;;;;;3.76;92.11;95669.00;4985549;28;20034;-53
2021/11/22 07:07:33;;;;;;;27.85;13.52;;;;;;;3.57;92.47;95668.25;4991620;28;20452;-55
2021/11/22 07:10:01;;;;;;;28.92;12.55;;;;;;;3.27;94.24;95671.13;4991063;28;20050;-56
2021/11/22 07:12:28;;;;;;;25.73;12.13;;;;;;;3.39;93.26;95676.03;4989861;28;20129;-54
2021/11/22 07:14:55;;;;;;;30.27;13.30;;;;;;;3.71;92.45;95671.78;4992404;28;20038;-52
2021/11/22 07:17:24;;;;;;;26.85;13.15;;;;;;;3.80;91.73;95674.53;4989983;28;20039;-55
2021/11/22 07:19:51;;;;;;;23.02;12.05;;;;;;;3.68;92.96;95681.19;4992313;28;20046;-52
2021/11/22 07:22:18;;;;;;;27.88;13.90;;;;;;;3.74;91.88;95677.31;4979499;28;20066;-52
2021/11/22 07:24:46;;;;;;;29.38;13.35;;;;;;;4.06;90.84;95693.59;4970434;28;20100;-53
2021/11/22 07:27:14;;;;;;;22.58;11.77;;;;;;;3.74;92.27;95695.28;4992701;28;20046;-54
2021/11/22 07:29:42;;;;;;;29.40;13.77;;;;;;;3.81;92.49;95694.88;4991737;28;20054;-55
2021/11/22 07:32:10;;;;;;;27.40;12.52;;;;;;;3.44;94.40;95699.22;4983836;28;20042;-55
2021/11/22 07:34:39;;;;;;;24.80;12.20;;;;;;;3.64;93.24;95693.56;4988883;28;20069;-53
2021/11/22 07:37:07;;;;;;;27.60;13.35;;;;;;;3.30;94.23;95706.41;4992332;28;20049;-52
2021/11/22 07:39:38;;;;;;;25.70;13.17;;;;;;;3.49;93.53;95707.97;4991725;28;20062;-53
2021/11/22 07:42:06;;;;;;;31.05;13.32;;;;;;;3.09;93.72;95711.25;4988040;28;20044;-52
2021/11/22 07:44:33;;;;;;;27.45;13.80;;;;;;;3.35;94.17;95719.69;4992383;28;20046;-53
2021/11/22 07:47:00;;;;;;;28.00;13.85;;;;;;;3.32;93.65;95721.09;4991563;28;20424;-52
2021/11/22 07:49:28;;;;;;;26.52;13.23;;;;;;;3.56;93.32;95728.19;4980895;28;20097;-52
2021/11/22 07:51:54;;;;;;;26.05;13.35;;;;;;;3.57;93.18;95733.25;4984536;28;20061;-52
2021/11/22 07:54:21;;;;;;;24.95;12.63;;;;;;;3.69;92.56;95725.56;4973852;28;20397;-53
2021/11/22 07:56:49;;;;;;;27.13;12.68;;;;;;;3.86;91.92;95730.34;4993111;28;20154;-56
2021/11/22 07:59:17;;;;;;;30.05;13.43;;;;;;;3.79;91.79;95734.50;4991289;28;20050;-55
2021/11/22 08:01:44;;;;;;;24.77;12.55;;;;;;;3.68;93.00;95740.03;4992187;28;20046;-55
2021/11/22 08:04:14;;;;;;;24.35;12.27;;;;;;;3.78;91.83;95738.28;4987264;28;20044;-55
2021/11/22 08:06:46;;;;;;;30.15;13.55;;;;;;;3.66;93.07;95730.72;4997059;28;20038;-56
2021/11/22 08:09:28;;;;;;;28.27;12.60;;;;;;;3.78;91.87;95736.41;4987550;28;20133;-56
2021/11/22 08:14:39;;;;;;;22.45;11.32;;;;;;;3.18;94.30;95750.41;4989928;28;20457;-56
2021/11/22 08:17:08;;;;;;;22.92;11.25;;;;;;;3.12;94.23;95745.44;4996124;28;20044;-55
2021/11/22 08:19:36;;;;;;;23.15;11.70;;;;;;;3.22;93.46;95748.78;4986038;28;20475;-55
2021/11/22 08:22:03;;;;;;;22.63;11.07;;;;;;;3.36;93.23;95746.16;5001432;28;20058;-56
2021/11/22 08:24:30;;;;;;;23.52;12.43;;;;;;;2.92;94.63;95765.22;4985381;28;20042;-55
2021/11/22 08:26:57;;;;;;;23.45;11.15;;;;;;;3.24;94.14;95756.47;4993887;28;20053;-56
2021/11/22 08:29:24;;;;;;;21.95;10.98;;;;;;;3.35;93.02;95757.94;4986964;28;20069;-56
2021/11/22 08:31:51;;;;;;;22.15;11.05;;;;;;;3.12;94.02;95762.28;4990511;28;20421;-56
2021/11/22 08:34:18;;;;;;;22.77;11.02;;;;;;;3.09;94.37;95764.72;5001776;28;20042;-56
2021/11/22 08:36:45;;;;;;;24.00;11.70;;;;;;;3.10;94.67;95774.34;5001912;28;20092;-56
2021/11/22 08:39:12;;;;;;;23.20;11.85;;;;;;;3.13;93.79;95773.75;5001106;28;20052;-54
2021/11/22 08:41:39;;;;;;;24.55;12.00;;;;;;;3.06;94.65;95781.34;4997565;28;20126;-54
2021/11/22 08:44:06;;;;;;;24.60;12.95;;;;;;;3.01;95.35;95782.19;5007542;28;20046;-55
2021/11/22 08:46:37;;;;;;;23.85;11.52;;;;;;;3.33;94.40;95786.84;4996949;28;20052;-53
2021/11/22 08:49:07;;;;;;;24.73;11.88;;;;;;;3.38;93.60;95791.31;5002993;28;20045;-55
2021/11/22 08:51:35;;;;;;;28.63;12.90;;;;;;;3.15;93.78;95801.81;4991345;28;20046;-52
2021/11/22 08:54:03;;;;;;;25.75;11.77;;;;;;;3.41;93.37;95793.41;4993378;28;20122;-52
2021/11/22 08:56:30;;;;;;;26.00;13.05;;;;;;;3.61;92.76;95798.47;4987662;28;20385;-55
2021/11/22 08:58:57;;;;;;;27.73;12.98;;;;;;;3.34;94.42;95804.47;4995268;28;20049;-55
2021/11/22 09:01:25;;;;;;;25.70;12.57;;;;;;;3.57;93.14;95810.81;4994201;28;20049;-55
2021/11/22 09:03:52;;;;;;;27.30;12.75;;;;;;;3.84;91.77;95820.88;4990246;28;20168;-54
2021/11/22 09:06:19;;;;;;;30.00;14.23;;;;;;;3.88;92.29;95813.84;4993853;28;20038;-55
2021/11/22 09:08:47;;;;;;;26.25;13.02;;;;;;;4.05;91.70;95828.56;4994155;28;20057;-53
2021/11/22 09:11:15;;;;;;;26.77;12.88;;;;;;;3.71;93.04;95827.75;4993924;28;20492;-53
2021/11/22 09:13:43;;;;;;;25.45;11.80;;;;;;;3.78;92.71;95824.72;4987288;28;20039;-56
2021/11/22 09:16:10;;;;;;;24.30;11.88;;;;;;;3.98;91.42;95840.44;4984939;28;20050;-53
2021/11/22 09:18:38;;;;;;;25.63;12.35;;;;;;;4.19;90.68;95835.56;4987329;28;20075;-52
2021/11/22 09:21:05;;;;;;;24.15;12.02;;;;;;;4.42;89.15;95833.84;4998779;28;20052;-52
2021/11/22 09:23:32;;;;;;;28.75;13.48;;;;;;;4.58;88.55;95841.56;5003791;28;20511;-53
2021/11/22 09:26:00;;;;;;;23.65;11.73;;;;;;;4.18;90.25;95836.63;5002650;28;20049;-52
2021/11/22 09:28:27;;;;;;;25.55;12.18;;;;;;;4.08;90.70;95844.06;5002876;28;20385;-52
2021/11/22 09:30:54;;;;;;;23.52;12.95;;;;;;;4.16;90.14;95840.69;4990890;28;20170;-55
2021/11/22 09:33:22;;;;;;;22.98;11.48;;;;;;;4.54;88.85;95840.59;4999633;28;20093;-53
2021/11/22 09:35:49;;;;;;;23.52;12.13;;;;;;;4.13;90.73;95846.66;4999403;28;20037;-56
2021/11/22 09:38:16;;;;;;;23.15;11.93;;;;;;;4.10;91.85;95842.69;4995499;28;20042;-55
2021/11/22 09:40:44;;;;;;;21.83;11.00;;;;;;;4.16;91.18;95846.03;4993598;28;20393;-54
2021/11/22 09:43:10;;;;;;;23.13;11.93;;;;;;;4.01;91.05;95846.31;4994056;28;20046;-53
2021/11/22 09:45:38;;;;;;;25.90;11.38;;;;;;;4.68;88.72;95852.13;4993215;28;20534;-54
2021/11/22 09:48:05;;;;;;;27.52;12.82;;;;;;;4.71;88.17;95850.72;4992334;28;20133;-56
2021/11/22 09:50:32;;;;;;;24.77;12.32;;;;;;;4.72;88.47;95869.19;4992425;28;20040;-52
2021/11/22 09:53:01;;;;;;;26.80;13.63;;;;;;;4.57;89.71;95858.75;4992200;28;20427;-52
2021/11/22 09:55:29;;;;;;;26.95;13.10;;;;;;;3.84;91.74;95858.34;4984683;28;20057;-54
2021/11/22 09:58:02;;;;;;;24.00;12.13;;;;;;;3.85;92.99;95859.91;4985590;28;20039;-52
2021/11/22 10:00:35;;;;;;;22.38;11.05;;;;;;;4.21;92.33;95867.41;4992415;28;20611;-51
2021/11/22 10:03:07;;;;;;;22.10;11.32;;;;;;;3.90;93.70;95865.22;4986106;28;20133;-52
2021/11/22 10:05:36;;;;;;;22.35;11.80;;;;;;;4.07;90.99;95870.03;4991595;28;20080;-52
2021/11/22 10:08:14;;;;;;;24.70;12.27;;;;;;;3.77;93.73;95863.28;4994235;28;20050;-53
2021/11/22 10:10:43;;;;;;;22.10;10.52;;;;;;;3.71;93.03;95861.75;4991500;28;20064;-54
2021/11/22 10:13:19;;;;;;;23.40;12.15;;;;;;;3.97;91.88;95862.94;4981180;28;20133;-52
2021/11/22 10:15:47;;;;;;;23.48;12.15;;;;;;;3.93;92.72;95859.28;4991464;28;20038;-54
2021/11/22 10:18:18;;;;;;;24.25;12.20;;;;;;;3.97;93.09;95852.25;5001348;28;20039;-54
2021/11/22 10:20:46;;;;;;;23.05;11.57;;;;;;;3.88;93.48;95845.97;4993246;28;20050;-53
2021/11/22 10:23:19;;;;;;;26.05;13.02;;;;;;;3.81;94.17;95842.84;4996254;28;20038;-53
2021/11/22 10:25:46;;;;;;;;;;;;;;;3.82;94.22;95849.78;4991637;28;20080;-53
2021/11/22 10:28:29;;;;;;;25.67;11.93;;;;;;;4.21;93.42;95849.44;4988047;28;20363;-51
2021/11/22 10:31:04;;;;;;;23.25;12.07;;;;;;;4.38;92.76;95848.09;4994848;28;20117;-55
2021/11/22 10:33:34;;;;;;;25.92;12.55;;;;;;;4.33;92.68;95849.00;4999291;28;20102;-54
2021/11/22 10:36:12;;;;;;;24.92;12.00;;;;;;;4.66;91.67;95854.31;4994369;28;20457;-55
2021/11/22 10:38:45;;;;;;;25.60;12.32;;;;;;;4.52;92.28;95851.63;4984922;28;20133;-51
2021/11/22 10:41:16;;;;;;;25.85;12.77;;;;;;;4.15;92.85;95855.16;4983397;28;20494;-54
2021/11/22 10:43:50;;;;;;;26.48;11.98;;;;;;;4.68;91.70;95857.50;5003938;28;20048;-55
2021/11/22 10:46:25;;;;;;;23.35;11.95;;;;;;;4.93;90.57;95865.03;4993397;28;20042;-55
2021/11/22 10:49:05;;;;;;;24.00;11.43;;;;;;;4.76;90.69;95856.78;4996001;28;20122;-54
2021/11/22 10:51:39;;;;;;;29.23;13.18;;;;;;;4.61;91.31;95859.75;4996794;28;20053;-53
2021/11/22 10:54:09;;;;;;;25.13;11.80;;;;;;;4.43;92.40;95856.84;4990116;28;20048;-53
2021/11/22 10:56:42;;;;;;;25.08;11.50;;;;;;;4.42;92.63;95865.19;4990695;28;20069;-54
2021/11/22 10:59:12;;;;;;;25.02;12.15;;;;;;;4.41;92.32;95860.91;4994386;28;20352;-55
2021/11/22 11:01:49;;;;;;;24.17;11.60;;;;;;;4.40;92.53;95865.47;4995817;28;20054;-53
2021/11/22 11:04:37;;;;;;;23.10;11.00;;;;;;;4.18;93.57;95865.31;4997676;28;20037;-54
2021/11/22 11:07:06;;;;;;;24.73;10.50;;;;;;;4.56;92.14;95863.31;4990678;28;20084;-56
2021/11/22 11:09:38;;;;;;;27.83;13.23;;;;;;;4.67;91.70;95863.94;4991298;28;20076;-50
2021/11/22 11:12:24;;;;;;;27.15;13.05;;;;;;;4.18;93.21;95866.09;4973424;28;20050;-54
2021/11/22 11:14:57;;;;;;;24.33;11.93;;;;;;;4.51;91.98;95865.28;4988732;28;20137;-50
2021/11/22 11:17:35;;;;;;;22.77;12.18;;;;;;;4.15;93.57;95871.25;4989642;28;20055;-54
2021/11/22 11:20:15;;;;;;;28.38;11.63;;;;;;;4.22;93.51;95866.28;4981013;28;20457;-54
2021/11/22 11:22:43;;;;;;;23.30;11.77;;;;;;;4.23;93.21;95867.91;4991195;28;20045;-53
2021/11/22 11:25:12;;;;;;;26.58;11.95;;;;;;;4.19;93.49;95866.88;4984443;28;20134;-53
2021/11/22 11:27:44;;;;;;;24.52;12.00;;;;;;;4.63;92.44;95873.66;4990513;28;20038;-50
2021/11/22 11:30:15;;;;;;;30.25;13.70;;;;;;;4.75;92.22;95873.97;4991462;28;20058;-50
2021/11/22 11:32:44;;;;;;;24.65;11.65;;;;;;;3.97;93.62;95872.88;4992268;28;20137;-50
2021/11/22 11:35:15;;;;;;;23.00;11.35;;;;;;;4.51;92.64;95884.03;4997871;28;20069;-50